Time,TemperatureF,DewpointF,PressureIn,WindDirection,WindDirectionDegrees,WindSpeedMPH,WindSpeedGustMPH,Humidity,HourlyPrecipIn,Conditions,Clouds,dailyrainin,SoftwareType,DateUTC
2013-06-27 00:00:00,66.7,65.2,29.81,ESE,109,0.0,2.0,95,0.00,,,0.00,Wunderground v.1.15,2013-06-27 04:00:00,
2013-06-27 00:05:00,66.6,65.1,29.81,ESE,109,0.0,2.0,95,0.00,,,0.00,Wunderground v.1.15,2013-06-27 04:05:00,
2013-06-27 00:10:00,66.5,64.7,29.81,ESE,109,0.0,2.0,94,0.00,,,0.00,Wunderground v.1.15,2013-06-27 04:10:00,
2013-06-27 00:15:00,66.3,64.8,29.81,ESE,109,0.0,2.0,95,0.00,,,0.00,Wunderground v.1.15,2013-06-27 04:15:00,
2013-06-27 00:20:00,66.3,64.8,29.81,ESE,109,0.0,2.0,95,0.00,,,0.00,Wunderground v.1.15,2013-06-27 04:20:00,
2013-06-27 00:25:00,66.3,64.8,29.80,ESE,109,0.0,2.0,95,0.00,,,0.00,Wunderground v.1.15,2013-06-27 04:25:00,
2013-06-27 00:30:00,66.3,64.8,29.81,ESE,109,0.0,2.0,95,0.00,,,0.00,Wunderground v.1.15,2013-06-27 04:30:00,
2013-06-27 00:35:00,66.2,64.7,29.81,ESE,109,0.0,2.0,95,0.00,,,0.00,Wunderground v.1.15,2013-06-27 04:35:00,
2013-06-27 00:40:00,66.1,64.6,29.81,ESE,109,0.0,2.0,95,0.00,,,0.00,Wunderground v.1.15,2013-06-27 04:40:00,
2013-06-27 00:50:00,65.9,64.4,29.81,ESE,109,0.0,2.0,95,0.00,,,0.00,Wunderground v.1.15,2013-06-27 04:50:00,
2013-06-27 00:55:00,65.8,64.3,29.82,ESE,109,0.0,2.0,95,0.00,,,0.00,Wunderground v.1.15,2013-06-27 04:55:00,
2013-06-27 01:00:00,65.7,64.2,29.81,ESE,109,0.0,2.0,95,0.00,,,0.00,Wunderground v.1.15,2013-06-27 05:00:00,
2013-06-27 01:05:00,65.6,64.1,29.81,ESE,109,0.0,2.0,95,0.00,,,0.00,Wunderground v.1.15,2013-06-27 05:05:00,
2013-06-27 01:10:00,65.4,63.9,29.81,ESE,109,0.0,2.0,95,0.00,,,0.00,Wunderground v.1.15,2013-06-27 05:10:00,
2013-06-27 01:20:00,65.1,63.6,29.81,ESE,109,0.0,2.0,95,0.00,,,0.00,Wunderground v.1.15,2013-06-27 05:20:00,
2013-06-27 01:25:00,65.0,63.5,29.80,ESE,109,0.0,2.0,95,0.00,,,0.00,Wunderground v.1.15,2013-06-27 05:25:00,
2013-06-27 01:30:00,64.9,63.4,29.80,ESE,109,0.0,2.0,95,0.00,,,0.00,Wunderground v.1.15,2013-06-27 05:30:00,
2013-06-27 01:35:00,64.8,63.3,29.80,ESE,109,0.0,2.0,95,0.00,,,0.00,Wunderground v.1.15,2013-06-27 05:35:00,
2013-06-27 01:40:00,64.6,63.1,29.80,ESE,109,0.0,2.0,95,0.00,,,0.00,Wunderground v.1.15,2013-06-27 05:40:00,
2013-06-27 01:45:00,64.5,63.0,29.80,ESE,109,0.0,2.0,95,0.00,,,0.00,Wunderground v.1.15,2013-06-27 05:45:00,
2013-06-27 01:50:00,64.5,63.3,29.79,ESE,109,0.0,2.0,96,0.00,,,0.00,Wunderground v.1.15,2013-06-27 05:50:00,
2013-06-27 02:00:00,64.5,63.3,29.79,ESE,109,0.0,2.0,96,0.00,,,0.00,Wunderground v.1.15,2013-06-27 06:00:00,
2013-06-27 02:05:00,64.5,63.3,29.79,ESE,109,0.0,2.0,96,0.00,,,0.00,Wunderground v.1.15,2013-06-27 06:05:00,
2013-06-27 02:10:00,64.5,63.3,29.78,ESE,109,0.0,2.0,96,0.00,,,0.00,Wunderground v.1.15,2013-06-27 06:10:00,
2013-06-27 02:15:00,64.5,63.3,29.78,ESE,109,0.0,2.0,96,0.00,,,0.00,Wunderground v.1.15,2013-06-27 06:15:00,
2013-06-27 02:20:00,64.5,63.3,29.79,ESE,109,0.0,2.0,96,0.00,,,0.00,Wunderground v.1.15,2013-06-27 06:20:00,
2013-06-27 02:25:00,64.4,63.2,29.79,ESE,109,0.0,2.0,96,0.00,,,0.00,Wunderground v.1.15,2013-06-27 06:25:00,
2013-06-27 02:30:00,64.3,63.1,29.79,ESE,109,0.0,2.0,96,0.00,,,0.00,Wunderground v.1.15,2013-06-27 06:30:00,
2013-06-27 02:40:00,64.3,63.1,29.79,ESE,109,0.0,2.0,96,0.00,,,0.00,Wunderground v.1.15,2013-06-27 06:40:00,
2013-06-27 02:45:00,64.3,63.1,29.78,ESE,109,0.0,2.0,96,0.00,,,0.00,Wunderground v.1.15,2013-06-27 06:45:00,
2013-06-27 02:50:00,64.3,63.1,29.78,ESE,109,0.0,2.0,96,0.00,,,0.00,Wunderground v.1.15,2013-06-27 06:50:00,
2013-06-27 02:55:00,64.2,63.0,29.78,ESE,109,0.0,2.0,96,0.00,,,0.00,Wunderground v.1.15,2013-06-27 06:55:00,
2013-06-27 03:00:00,64.1,62.9,29.78,ESE,109,0.0,2.0,96,0.00,,,0.00,Wunderground v.1.15,2013-06-27 07:00:00,
2013-06-27 03:05:00,64.0,62.8,29.78,ESE,109,0.0,2.0,96,0.00,,,0.00,Wunderground v.1.15,2013-06-27 07:05:00,
2013-06-27 03:15:00,63.8,62.6,29.78,ESE,109,0.0,2.0,96,0.00,,,0.00,Wunderground v.1.15,2013-06-27 07:15:00,
2013-06-27 03:20:00,63.7,62.5,29.77,ESE,109,0.0,2.0,96,0.00,,,0.00,Wunderground v.1.15,2013-06-27 07:20:00,
2013-06-27 03:25:00,63.6,62.4,29.77,ESE,109,0.0,2.0,96,0.00,,,0.00,Wunderground v.1.15,2013-06-27 07:25:00,
2013-06-27 03:30:00,63.5,62.3,29.78,ESE,109,0.0,2.0,96,0.00,,,0.00,Wunderground v.1.15,2013-06-27 07:30:00,
2013-06-27 03:35:00,63.4,62.2,29.78,ESE,109,0.0,2.0,96,0.00,,,0.00,Wunderground v.1.15,2013-06-27 07:35:00,
2013-06-27 03:40:00,63.2,62.0,29.78,ESE,109,0.0,2.0,96,0.00,,,0.00,Wunderground v.1.15,2013-06-27 07:40:00,
2013-06-27 03:45:00,63.0,61.8,29.78,ESE,109,0.0,2.0,96,0.00,,,0.00,Wunderground v.1.15,2013-06-27 07:45:00,
2013-06-27 03:55:00,62.8,61.3,29.78,ESE,109,0.0,2.0,95,0.00,,,0.00,Wunderground v.1.15,2013-06-27 07:55:00,
2013-06-27 04:00:00,62.7,61.5,29.78,ESE,109,0.0,2.0,96,0.00,,,0.00,Wunderground v.1.15,2013-06-27 08:00:00,
2013-06-27 04:05:00,62.6,61.4,29.78,ESE,109,0.0,2.0,96,0.00,,,0.00,Wunderground v.1.15,2013-06-27 08:05:00,
2013-06-27 04:10:00,62.5,61.3,29.78,ESE,109,0.0,2.0,96,0.00,,,0.00,Wunderground v.1.15,2013-06-27 08:10:00,
2013-06-27 04:15:00,62.4,61.2,29.78,ESE,109,0.0,2.0,96,0.00,,,0.00,Wunderground v.1.15,2013-06-27 08:15:00,
2013-06-27 04:20:00,62.3,61.1,29.79,ESE,109,0.0,2.0,96,0.00,,,0.00,Wunderground v.1.15,2013-06-27 08:20:00,
2013-06-27 04:30:00,62.0,60.8,29.78,ESE,109,0.0,2.0,96,0.00,,,0.00,Wunderground v.1.15,2013-06-27 08:30:00,
2013-06-27 04:40:00,61.9,60.7,29.79,ESE,109,0.0,2.0,96,0.00,,,0.00,Wunderground v.1.15,2013-06-27 08:40:00,
2013-06-27 04:45:00,61.8,60.6,29.79,ESE,109,0.0,2.0,96,0.00,,,0.00,Wunderground v.1.15,2013-06-27 08:45:00,
2013-06-27 04:55:00,61.8,60.6,29.79,ESE,109,0.0,0.0,96,0.00,,,0.00,Wunderground v.1.15,2013-06-27 08:55:00,
2013-06-27 05:00:00,61.8,60.6,29.79,ESE,109,0.0,0.0,96,0.00,,,0.00,Wunderground v.1.15,2013-06-27 09:00:00,
2013-06-27 05:05:00,61.8,60.6,29.79,ESE,109,0.0,0.0,96,0.00,,,0.00,Wunderground v.1.15,2013-06-27 09:05:00,
2013-06-27 05:10:00,61.8,60.6,29.80,ESE,109,0.0,0.0,96,0.00,,,0.00,Wunderground v.1.15,2013-06-27 09:10:00,
2013-06-27 05:15:00,61.9,60.7,29.80,ESE,109,0.0,0.0,96,0.00,,,0.00,Wunderground v.1.15,2013-06-27 09:15:00,
2013-06-27 05:20:00,61.9,60.7,29.80,ESE,109,0.0,0.0,96,0.00,,,0.00,Wunderground v.1.15,2013-06-27 09:20:00,
2013-06-27 05:25:00,61.9,60.7,29.80,ESE,109,0.0,0.0,96,0.00,,,0.00,Wunderground v.1.15,2013-06-27 09:25:00,
2013-06-27 05:30:00,61.9,60.7,29.80,ESE,109,0.0,0.0,96,0.00,,,0.00,Wunderground v.1.15,2013-06-27 09:30:00,
2013-06-27 05:40:00,61.9,60.7,29.80,ESE,109,0.0,0.0,96,0.00,,,0.00,Wunderground v.1.15,2013-06-27 09:40:00,
2013-06-27 05:45:00,61.9,60.7,29.80,ESE,109,0.0,0.0,96,0.00,,,0.00,Wunderground v.1.15,2013-06-27 09:45:00,
2013-06-27 05:50:00,62.0,61.1,29.80,ESE,109,0.0,0.0,97,0.00,,,0.00,Wunderground v.1.15,2013-06-27 09:50:00,
2013-06-27 05:55:00,62.1,61.2,29.81,ESE,109,0.0,0.0,97,0.00,,,0.00,Wunderground v.1.15,2013-06-27 09:55:00,
2013-06-27 06:00:00,62.2,61.3,29.80,ESE,109,0.0,0.0,97,0.00,,,0.00,Wunderground v.1.15,2013-06-27 10:00:00,
2013-06-27 06:05:00,62.4,61.5,29.80,ESE,109,0.0,0.0,97,0.00,,,0.00,Wunderground v.1.15,2013-06-27 10:05:00,
2013-06-27 06:10:00,62.6,61.7,29.80,ESE,109,0.0,0.0,97,0.00,,,0.00,Wunderground v.1.15,2013-06-27 10:10:00,
2013-06-27 06:15:00,62.9,62.0,29.80,ESE,109,0.0,0.0,97,0.00,,,0.00,Wunderground v.1.15,2013-06-27 10:15:00,
2013-06-27 06:25:00,63.4,62.5,29.80,ESE,109,0.0,0.0,97,0.00,,,0.00,Wunderground v.1.15,2013-06-27 10:25:00,
2013-06-27 06:30:00,63.6,62.7,29.80,ESE,109,0.0,0.0,97,0.00,,,0.00,Wunderground v.1.15,2013-06-27 10:30:00,
2013-06-27 06:35:00,63.7,62.8,29.80,ESE,109,0.0,0.0,97,0.00,,,0.00,Wunderground v.1.15,2013-06-27 10:35:00,
2013-06-27 06:40:00,63.8,62.9,29.80,ESE,109,0.0,0.0,97,0.00,,,0.00,Wunderground v.1.15,2013-06-27 10:40:00,
2013-06-27 06:45:00,64.0,63.1,29.80,ESE,109,0.0,0.0,97,0.00,,,0.00,Wunderground v.1.15,2013-06-27 10:45:00,
2013-06-27 06:50:00,64.2,63.3,29.81,ESE,109,0.0,0.0,97,0.00,,,0.00,Wunderground v.1.15,2013-06-27 10:50:00,
2013-06-27 07:00:00,64.8,63.9,29.81,ESE,109,0.0,0.0,97,0.00,,,0.00,Wunderground v.1.15,2013-06-27 11:00:00,
2013-06-27 07:05:00,65.0,64.1,29.81,ESE,109,0.0,0.0,97,0.00,,,0.00,Wunderground v.1.15,2013-06-27 11:05:00,
2013-06-27 07:10:00,65.6,64.7,29.81,ESE,109,0.0,0.0,97,0.00,,,0.00,Wunderground v.1.15,2013-06-27 11:10:00,
2013-06-27 07:15:00,66.0,65.4,29.81,ESE,109,0.0,0.0,98,0.00,,,0.00,Wunderground v.1.15,2013-06-27 11:15:00,
2013-06-27 07:20:00,66.1,65.5,29.81,ESE,109,0.0,0.0,98,0.00,,,0.00,Wunderground v.1.15,2013-06-27 11:20:00,
2013-06-27 07:25:00,66.3,65.4,29.81,ESE,109,0.0,0.0,97,0.00,,,0.00,Wunderground v.1.15,2013-06-27 11:25:00,
2013-06-27 07:35:00,66.6,65.7,29.81,ESE,109,0.0,0.0,97,0.00,,,0.00,Wunderground v.1.15,2013-06-27 11:35:00,
2013-06-27 07:40:00,66.9,66.0,29.81,ESE,109,0.0,0.0,97,0.00,,,0.00,Wunderground v.1.15,2013-06-27 11:40:00,
2013-06-27 07:45:00,67.4,66.5,29.80,ESE,109,0.0,0.0,97,0.00,,,0.00,Wunderground v.1.15,2013-06-27 11:45:00,
2013-06-27 07:50:00,67.7,66.8,29.80,ESE,109,0.0,0.0,97,0.00,,,0.00,Wunderground v.1.15,2013-06-27 11:50:00,
2013-06-27 07:55:00,68.1,67.2,29.80,ESE,109,0.0,0.0,97,0.00,,,0.00,Wunderground v.1.15,2013-06-27 11:55:00,
2013-06-27 08:00:00,68.2,67.3,29.80,ESE,109,0.0,0.0,97,0.00,,,0.00,Wunderground v.1.15,2013-06-27 12:00:00,
2013-06-27 08:05:00,68.4,67.5,29.80,ESE,109,0.0,0.0,97,0.00,,,0.00,Wunderground v.1.15,2013-06-27 12:05:00,
2013-06-27 08:15:00,69.2,68.3,29.80,ESE,109,0.0,0.0,97,0.00,,,0.00,Wunderground v.1.15,2013-06-27 12:15:00,
2013-06-27 08:20:00,69.4,68.5,29.80,ESE,109,0.0,0.0,97,0.00,,,0.00,Wunderground v.1.15,2013-06-27 12:20:00,
2013-06-27 08:25:00,69.5,68.6,29.80,ESE,109,0.0,0.0,97,0.00,,,0.00,Wunderground v.1.15,2013-06-27 12:25:00,
2013-06-27 08:30:00,69.5,68.6,29.80,ESE,109,0.0,0.0,97,0.00,,,0.00,Wunderground v.1.15,2013-06-27 12:30:00,
2013-06-27 08:35:00,69.7,68.8,29.80,ESE,109,0.0,0.0,97,0.00,,,0.00,Wunderground v.1.15,2013-06-27 12:35:00,
2013-06-27 08:40:00,69.9,69.0,29.79,ESE,109,0.0,0.0,97,0.00,,,0.00,Wunderground v.1.15,2013-06-27 12:40:00,
2013-06-27 08:50:00,70.4,69.5,29.80,ESE,109,0.0,0.0,97,0.00,,,0.00,Wunderground v.1.15,2013-06-27 12:50:00,
2013-06-27 08:55:00,70.6,69.4,29.80,ESE,109,0.0,0.0,96,0.00,,,0.00,Wunderground v.1.15,2013-06-27 12:55:00,
2013-06-27 09:00:00,71.1,69.9,29.80,ESE,109,0.0,0.0,96,0.00,,,0.00,Wunderground v.1.15,2013-06-27 13:00:00,
2013-06-27 09:05:00,71.5,69.7,29.80,ESE,109,0.0,0.0,94,0.00,,,0.00,Wunderground v.1.15,2013-06-27 13:05:00,
2013-06-27 09:10:00,71.7,68.9,29.80,ESE,119,0.0,0.0,91,0.00,,,0.00,Wunderground v.1.15,2013-06-27 13:10:00,
2013-06-27 09:15:00,72.2,69.4,29.79,ESE,119,0.0,0.0,91,0.00,,,0.00,Wunderground v.1.15,2013-06-27 13:15:00,
2013-06-27 09:20:00,72.4,68.3,29.79,ESE,119,0.0,0.0,87,0.00,,,0.00,Wunderground v.1.15,2013-06-27 13:20:00,
2013-06-27 09:30:00,73.3,69.9,29.79,ESE,110,0.0,0.0,89,0.00,,,0.00,Wunderground v.1.15,2013-06-27 13:30:00,
2013-06-27 09:35:00,73.6,69.2,29.79,ESE,110,0.0,0.0,86,0.00,,,0.00,Wunderground v.1.15,2013-06-27 13:35:00,
2013-06-27 09:40:00,74.0,69.5,29.79,ENE,59,0.0,0.0,86,0.00,,,0.00,Wunderground v.1.15,2013-06-27 13:40:00,
2013-06-27 09:45:00,74.4,70.6,29.79,ENE,59,0.0,0.0,88,0.00,,,0.00,Wunderground v.1.15,2013-06-27 13:45:00,
2013-06-27 09:50:00,74.8,69.3,29.79,SE,144,0.0,0.0,83,0.00,,,0.00,Wunderground v.1.15,2013-06-27 13:50:00,
2013-06-27 09:55:00,75.3,69.8,29.78,SSE,147,0.0,0.0,83,0.00,,,0.00,Wunderground v.1.15,2013-06-27 13:55:00,
2013-06-27 10:00:00,75.7,69.8,29.79,NNW,341,0.0,0.0,82,0.00,,,0.00,Wunderground v.1.15,2013-06-27 14:00:00,
2013-06-27 10:10:00,76.7,70.8,29.78,NNW,347,0.0,1.0,82,0.00,,,0.00,Wunderground v.1.15,2013-06-27 14:10:00,
2013-06-27 10:15:00,77.3,69.9,29.78,North,5,0.0,1.0,78,0.00,,,0.00,Wunderground v.1.15,2013-06-27 14:15:00,
2013-06-27 10:20:00,77.6,69.4,29.78,North,5,0.0,0.0,76,0.00,,,0.00,Wunderground v.1.15,2013-06-27 14:20:00,
2013-06-27 10:25:00,77.9,70.5,29.78,SSE,157,0.0,0.0,78,0.00,,,0.00,Wunderground v.1.15,2013-06-27 14:25:00,
2013-06-27 10:30:00,78.3,71.2,29.77,SSE,157,0.0,0.0,79,0.00,,,0.00,Wunderground v.1.15,2013-06-27 14:30:00,
2013-06-27 10:35:00,78.7,72.0,29.77,East,88,0.0,0.0,80,0.00,,,0.00,Wunderground v.1.15,2013-06-27 14:35:00,
2013-06-27 10:45:00,79.3,71.8,29.77,ENE,77,0.0,1.0,78,0.00,,,0.00,Wunderground v.1.15,2013-06-27 14:45:00,
2013-06-27 10:50:00,79.6,72.9,29.77,SE,142,0.0,1.0,80,0.00,,,0.00,Wunderground v.1.15,2013-06-27 14:50:00,
2013-06-27 10:55:00,79.9,72.0,29.77,ENE,76,0.0,1.0,77,0.00,,,0.00,Wunderground v.1.15,2013-06-27 14:55:00,
2013-06-27 11:00:00,79.9,70.5,29.77,SSE,164,0.0,0.0,73,0.00,,,0.00,Wunderground v.1.15,2013-06-27 15:00:00,
2013-06-27 11:05:00,79.6,71.0,29.77,SSE,164,1.0,1.0,75,0.00,,,0.00,Wunderground v.1.15,2013-06-27 15:05:00,
2013-06-27 11:10:00,79.9,71.7,29.77,SE,137,0.0,1.0,76,0.00,,,0.00,Wunderground v.1.15,2013-06-27 15:10:00,
2013-06-27 11:15:00,79.8,70.0,29.77,SE,146,0.0,1.0,72,0.00,,,0.00,Wunderground v.1.15,2013-06-27 15:15:00,
2013-06-27 11:25:00,80.0,72.1,29.77,SE,146,0.0,0.0,77,0.00,,,0.00,Wunderground v.1.15,2013-06-27 15:25:00,
2013-06-27 11:30:00,80.2,70.4,29.77,SSE,159,0.0,0.0,72,0.00,,,0.00,Wunderground v.1.15,2013-06-27 15:30:00,
2013-06-27 11:35:00,79.7,70.7,29.77,SSE,159,0.0,0.0,74,0.00,,,0.00,Wunderground v.1.15,2013-06-27 15:35:00,
2013-06-27 11:40:00,79.8,71.2,29.77,SSE,161,0.0,0.0,75,0.00,,,0.00,Wunderground v.1.15,2013-06-27 15:40:00,
2013-06-27 11:45:00,80.0,70.6,29.76,ESE,123,0.0,0.0,73,0.00,,,0.00,Wunderground v.1.15,2013-06-27 15:45:00,
2013-06-27 11:50:00,80.3,71.6,29.76,ESE,123,0.0,0.0,75,0.00,,,0.00,Wunderground v.1.15,2013-06-27 15:50:00,
2013-06-27 11:55:00,80.5,71.8,29.76,SE,128,0.0,0.0,75,0.00,,,0.00,Wunderground v.1.15,2013-06-27 15:55:00,
2013-06-27 12:05:00,81.5,71.6,29.76,SE,135,0.0,0.0,72,0.00,,,0.00,Wunderground v.1.15,2013-06-27 16:05:00,
2013-06-27 12:10:00,82.0,71.2,29.76,SSE,148,0.0,1.0,70,0.00,,,0.00,Wunderground v.1.15,2013-06-27 16:10:00,
2013-06-27 12:15:00,81.7,71.8,29.76,SSE,148,0.0,1.0,72,0.00,,,0.00,Wunderground v.1.15,2013-06-27 16:15:00,
2013-06-27 12:20:00,81.2,70.1,29.76,SSE,162,0.0,0.0,69,0.00,,,0.00,Wunderground v.1.15,2013-06-27 16:20:00,
2013-06-27 12:25:00,80.9,72.6,29.76,SE,135,0.0,0.0,76,0.00,,,0.00,Wunderground v.1.15,2013-06-27 16:25:00,
2013-06-27 12:30:00,80.8,71.7,29.76,SE,135,0.0,0.0,74,0.00,,,0.00,Wunderground v.1.15,2013-06-27 16:30:00,
2013-06-27 12:40:00,80.9,72.2,29.75,South,184,0.0,0.0,75,0.00,,,0.00,Wunderground v.1.15,2013-06-27 16:40:00,
2013-06-27 12:45:00,80.8,71.7,29.75,South,175,0.0,0.0,74,0.00,,,0.00,Wunderground v.1.15,2013-06-27 16:45:00,
2013-06-27 12:50:00,80.4,70.9,29.75,South,175,1.0,1.0,73,0.00,,,0.00,Wunderground v.1.15,2013-06-27 16:50:00,
2013-06-27 12:55:00,80.0,71.8,29.74,South,175,0.0,2.0,76,0.00,,,0.00,Wunderground v.1.15,2013-06-27 16:55:00,
2013-06-27 13:00:00,79.8,71.9,29.74,SSE,161,0.0,0.0,77,0.00,,,0.00,Wunderground v.1.15,2013-06-27 17:00:00,
2013-06-27 13:05:00,79.5,71.7,29.75,SSE,160,0.0,1.0,77,0.00,,,0.00,Wunderground v.1.15,2013-06-27 17:05:00,
2013-06-27 13:10:00,79.6,72.1,29.75,SSE,163,0.0,0.0,78,0.00,,,0.00,Wunderground v.1.15,2013-06-27 17:10:00,
2013-06-27 13:15:00,80.0,73.3,29.75,SSE,150,0.0,0.0,80,0.00,,,0.00,Wunderground v.1.15,2013-06-27 17:15:00,
2013-06-27 13:25:00,79.9,71.7,29.75,South,177,0.0,0.0,76,0.00,,,0.00,Wunderground v.1.15,2013-06-27 17:25:00,
2013-06-27 13:30:00,79.5,70.9,29.75,SSW,203,0.0,0.0,75,0.00,,,0.00,Wunderground v.1.15,2013-06-27 17:30:00,
2013-06-27 13:35:00,79.6,71.8,29.74,SSE,166,0.0,0.0,77,0.00,,,0.00,Wunderground v.1.15,2013-06-27 17:35:00,
2013-06-27 13:40:00,80.3,73.6,29.74,SSE,168,0.0,1.0,80,0.00,,,0.00,Wunderground v.1.15,2013-06-27 17:40:00,
2013-06-27 13:45:00,80.7,73.2,29.74,SE,134,0.0,1.0,78,0.00,,,0.00,Wunderground v.1.15,2013-06-27 17:45:00,
2013-06-27 13:50:00,80.9,72.2,29.74,South,171,1.0,1.0,75,0.00,,,0.00,Wunderground v.1.15,2013-06-27 17:50:00,
2013-06-27 14:00:00,80.4,72.1,29.74,South,171,0.0,1.0,76,0.00,,,0.00,Wunderground v.1.15,2013-06-27 18:00:00,
2013-06-27 14:05:00,80.2,71.9,29.74,South,171,0.0,1.0,76,0.00,,,0.00,Wunderground v.1.15,2013-06-27 18:05:00,
2013-06-27 14:10:00,80.1,71.8,29.74,South,169,0.0,0.0,76,0.00,,,0.00,Wunderground v.1.15,2013-06-27 18:10:00,
2013-06-27 14:15:00,80.4,72.1,29.74,ESE,123,0.0,0.0,76,0.00,,,0.00,Wunderground v.1.15,2013-06-27 18:15:00,
2013-06-27 14:20:00,80.7,72.0,29.73,SSE,161,0.0,1.0,75,0.00,,,0.00,Wunderground v.1.15,2013-06-27 18:20:00,
2013-06-27 14:25:00,80.3,71.6,29.73,SSE,168,1.0,1.0,75,0.00,,,0.00,Wunderground v.1.15,2013-06-27 18:25:00,
2013-06-27 14:35:00,80.3,72.8,29.73,SSE,168,0.0,1.0,78,0.00,,,0.00,Wunderground v.1.15,2013-06-27 18:35:00,
2013-06-27 14:40:00,80.8,72.9,29.73,SSE,168,0.0,0.0,77,0.00,,,0.00,Wunderground v.1.15,2013-06-27 18:40:00,
2013-06-27 14:45:00,81.0,72.7,29.73,SSE,168,0.0,0.0,76,0.00,,,0.00,Wunderground v.1.15,2013-06-27 18:45:00,
2013-06-27 14:50:00,80.8,72.9,29.73,SSE,168,0.0,0.0,77,0.00,,,0.00,Wunderground v.1.15,2013-06-27 18:50:00,
2013-06-27 14:55:00,80.8,72.5,29.72,SSE,168,0.0,1.0,76,0.00,,,0.00,Wunderground v.1.15,2013-06-27 18:55:00,
2013-06-27 15:00:00,80.9,71.8,29.72,SSE,159,0.0,1.0,74,0.00,,,0.00,Wunderground v.1.15,2013-06-27 19:00:00,
2013-06-27 15:05:00,81.0,71.1,29.72,SSE,166,1.0,1.0,72,0.00,,,0.00,Wunderground v.1.15,2013-06-27 19:05:00,
2013-06-27 15:15:00,81.3,72.2,29.72,SSE,163,0.0,0.0,74,0.00,,,0.00,Wunderground v.1.15,2013-06-27 19:15:00,
2013-06-27 15:20:00,81.0,70.7,29.72,SSE,163,0.0,0.0,71,0.00,,,0.00,Wunderground v.1.15,2013-06-27 19:20:00,
2013-06-27 15:25:00,80.7,72.8,29.72,SE,136,0.0,0.0,77,0.00,,,0.00,Wunderground v.1.15,2013-06-27 19:25:00,
2013-06-27 15:30:00,80.6,72.3,29.72,SE,142,0.0,0.0,76,0.00,,,0.00,Wunderground v.1.15,2013-06-27 19:30:00,
2013-06-27 15:35:00,80.6,73.1,29.72,SE,142,0.0,0.0,78,0.00,,,0.00,Wunderground v.1.15,2013-06-27 19:35:00,
2013-06-27 15:40:00,80.6,71.9,29.71,SE,142,0.0,0.0,75,0.00,,,0.00,Wunderground v.1.15,2013-06-27 19:40:00,
2013-06-27 15:50:00,80.8,72.9,29.71,SE,142,0.0,0.0,77,0.00,,,0.00,Wunderground v.1.15,2013-06-27 19:50:00,
2013-06-27 15:55:00,80.6,73.5,29.71,SE,139,0.0,0.0,79,0.00,,,0.00,Wunderground v.1.15,2013-06-27 19:55:00,
2013-06-27 16:00:00,80.4,72.5,29.71,SE,139,0.0,0.0,77,0.00,,,0.00,Wunderground v.1.15,2013-06-27 20:00:00,
2013-06-27 16:05:00,80.2,72.3,29.71,SE,139,0.0,0.0,77,0.00,,,0.00,Wunderground v.1.15,2013-06-27 20:05:00,
2013-06-27 16:10:00,80.2,73.1,29.71,SE,139,0.0,0.0,79,0.00,,,0.00,Wunderground v.1.15,2013-06-27 20:10:00,
2013-06-27 16:20:00,80.2,73.8,29.70,SE,139,0.0,0.0,81,0.00,,,0.00,Wunderground v.1.15,2013-06-27 20:20:00,
2013-06-27 16:25:00,80.3,73.9,29.70,SE,139,0.0,0.0,81,0.00,,,0.00,Wunderground v.1.15,2013-06-27 20:25:00,
2013-06-27 16:30:00,80.5,73.4,29.70,SE,139,0.0,0.0,79,0.00,,,0.00,Wunderground v.1.15,2013-06-27 20:30:00,
2013-06-27 16:35:00,80.5,73.4,29.69,SE,139,0.0,0.0,79,0.00,,,0.00,Wunderground v.1.15,2013-06-27 20:35:00,
2013-06-27 16:40:00,80.6,73.5,29.69,SE,139,0.0,0.0,79,0.00,,,0.00,Wunderground v.1.15,2013-06-27 20:40:00,
2013-06-27 16:45:00,80.8,73.7,29.69,East,100,0.0,0.0,79,0.00,,,0.00,Wunderground v.1.15,2013-06-27 20:45:00,
2013-06-27 16:55:00,80.8,73.3,29.69,East,100,0.0,0.0,78,0.00,,,0.00,Wunderground v.1.15,2013-06-27 20:55:00,
2013-06-27 17:00:00,80.9,73.8,29.69,ESE,103,0.0,0.0,79,0.00,,,0.00,Wunderground v.1.15,2013-06-27 21:00:00,
2013-06-27 17:05:00,81.1,74.0,29.69,ESE,103,0.0,0.0,79,0.00,,,0.00,Wunderground v.1.15,2013-06-27 21:05:00,
2013-06-27 17:10:00,81.3,73.4,29.69,ESE,103,0.0,0.0,77,0.00,,,0.00,Wunderground v.1.15,2013-06-27 21:10:00,
2013-06-27 17:15:00,81.3,73.0,29.69,ESE,103,0.0,0.0,76,0.00,,,0.00,Wunderground v.1.15,2013-06-27 21:15:00,
2013-06-27 17:20:00,81.3,73.4,29.69,ESE,103,0.0,0.0,77,0.00,,,0.00,Wunderground v.1.15,2013-06-27 21:20:00,
2013-06-27 17:25:00,81.2,73.7,29.68,ESE,103,0.0,0.0,78,0.00,,,0.00,Wunderground v.1.15,2013-06-27 21:25:00,
2013-06-27 17:35:00,80.9,74.5,29.68,ESE,103,0.0,0.0,81,0.00,,,0.00,Wunderground v.1.15,2013-06-27 21:35:00,
2013-06-27 17:40:00,80.7,73.6,29.68,ESE,103,0.0,0.0,79,0.00,,,0.00,Wunderground v.1.15,2013-06-27 21:40:00,
2013-06-27 17:45:00,80.6,73.9,29.68,ESE,103,0.0,0.0,80,0.00,,,0.00,Wunderground v.1.15,2013-06-27 21:45:00,
2013-06-27 17:50:00,80.4,73.3,29.68,ESE,103,0.0,0.0,79,0.00,,,0.00,Wunderground v.1.15,2013-06-27 21:50:00,
2013-06-27 18:00:00,80.2,73.5,29.68,ESE,103,0.0,0.0,80,0.00,,,0.00,Wunderground v.1.15,2013-06-27 22:00:00,
2013-06-27 18:05:00,80.1,73.7,29.68,ESE,103,0.0,0.0,81,0.00,,,0.00,Wunderground v.1.15,2013-06-27 22:05:00,
2013-06-27 18:10:00,80.1,73.7,29.68,ESE,103,0.0,0.0,81,0.00,,,0.00,Wunderground v.1.15,2013-06-27 22:10:00,
2013-06-27 18:15:00,80.0,74.0,29.68,ESE,103,0.0,0.0,82,0.00,,,0.00,Wunderground v.1.15,2013-06-27 22:15:00,
2013-06-27 18:20:00,79.8,73.4,29.67,ESE,103,0.0,0.0,81,0.00,,,0.00,Wunderground v.1.15,2013-06-27 22:20:00,
2013-06-27 18:30:00,79.4,72.7,29.68,ESE,103,0.0,0.0,80,0.00,,,0.00,Wunderground v.1.15,2013-06-27 22:30:00,
2013-06-27 18:35:00,79.2,72.9,29.68,ESE,103,0.0,0.0,81,0.00,,,0.00,Wunderground v.1.15,2013-06-27 22:35:00,
2013-06-27 18:45:00,78.4,71.7,29.68,ESE,103,0.0,0.0,80,0.00,,,0.00,Wunderground v.1.15,2013-06-27 22:45:00,
2013-06-27 18:50:00,78.0,72.1,29.68,SSE,163,0.0,0.0,82,0.00,,,0.00,Wunderground v.1.15,2013-06-27 22:50:00,
2013-06-27 18:55:00,77.8,71.9,29.68,SSE,163,0.0,0.0,82,0.00,,,0.00,Wunderground v.1.15,2013-06-27 22:55:00,
2013-06-27 19:05:00,77.2,71.6,29.68,SSE,163,0.0,0.0,83,0.00,,,0.00,Wunderground v.1.15,2013-06-27 23:05:00,
2013-06-27 19:10:00,76.8,71.2,29.68,SSE,163,0.0,0.0,83,0.00,,,0.00,Wunderground v.1.15,2013-06-27 23:10:00,
2013-06-27 19:15:00,76.3,70.8,29.68,East,101,0.0,0.0,83,0.00,,,0.00,Wunderground v.1.15,2013-06-27 23:15:00,
2013-06-27 19:20:00,75.8,70.3,29.68,East,95,0.0,0.0,83,0.00,,,0.00,Wunderground v.1.15,2013-06-27 23:20:00,
2013-06-27 19:25:00,75.4,69.9,29.68,East,95,0.0,0.0,83,0.00,,,0.00,Wunderground v.1.15,2013-06-27 23:25:00,
2013-06-27 19:30:00,75.0,69.5,29.68,East,95,0.0,0.0,83,0.00,,,0.00,Wunderground v.1.15,2013-06-27 23:30:00,
2013-06-27 19:40:00,74.3,69.5,29.68,East,92,0.0,0.0,85,0.00,,,0.00,Wunderground v.1.15,2013-06-27 23:40:00,
2013-06-27 19:45:00,73.9,69.4,29.69,SE,146,0.0,0.0,86,0.00,,,0.00,Wunderground v.1.15,2013-06-27 23:45:00,
2013-06-27 19:50:00,73.5,69.7,29.69,SSE,153,0.0,0.0,88,0.00,,,0.00,Wunderground v.1.15,2013-06-27 23:50:00,
2013-06-27 19:55:00,73.0,69.6,29.69,ESE,119,0.0,0.0,89,0.00,,,0.01,Wunderground v.1.15,2013-06-27 23:55:00,
2013-06-27 20:00:00,72.1,68.7,29.69,SE,137,0.0,0.0,89,0.00,,,0.01,Wunderground v.1.15,2013-06-28 00:00:00,
2013-06-27 20:05:00,71.3,67.6,29.69,NE,54,0.0,0.0,88,0.00,,,0.01,Wunderground v.1.15,2013-06-28 00:05:00,
2013-06-27 20:10:00,70.6,67.5,29.68,ESE,114,0.0,0.0,90,0.00,,,0.01,Wunderground v.1.15,2013-06-28 00:10:00,
2013-06-27 20:20:00,69.7,67.0,29.68,SSE,154,0.0,0.0,91,0.00,,,0.01,Wunderground v.1.15,2013-06-28 00:20:00,
2013-06-27 20:30:00,68.9,66.2,29.68,SSE,150,0.0,0.0,91,0.72,,,0.25,Wunderground v.1.15,2013-06-28 00:30:00,
2013-06-27 20:35:00,68.5,66.1,29.67,SSE,150,0.0,0.0,92,0.26,,,0.27,Wunderground v.1.15,2013-06-28 00:35:00,
2013-06-27 20:45:00,67.9,65.5,29.67,SSE,150,0.0,0.0,92,0.05,,,0.27,Wunderground v.1.15,2013-06-28 00:45:00,
2013-06-27 20:50:00,67.7,65.6,29.67,SSE,150,0.0,0.0,93,0.05,,,0.28,Wunderground v.1.15,2013-06-28 00:50:00,
2013-06-27 20:55:00,67.6,65.5,29.67,SSE,150,0.0,0.0,93,0.05,,,0.28,Wunderground v.1.15,2013-06-28 00:55:00,
2013-06-27 21:00:00,67.4,65.3,29.67,SSE,150,0.0,0.0,93,0.04,,,0.28,Wunderground v.1.15,2013-06-28 01:00:00,
2013-06-27 21:05:00,67.3,65.5,29.67,SSE,150,0.0,0.0,94,0.00,,,0.28,Wunderground v.1.15,2013-06-28 01:05:00,
2013-06-27 21:15:00,67.2,65.4,29.66,SSE,150,0.0,0.0,94,0.00,,,0.28,Wunderground v.1.15,2013-06-28 01:15:00,
2013-06-27 21:20:00,67.2,65.4,29.67,SSE,150,0.0,0.0,94,0.00,,,0.28,Wunderground v.1.15,2013-06-28 01:20:00,
2013-06-27 21:25:00,67.1,65.6,29.66,SSE,150,0.0,0.0,95,0.00,,,0.28,Wunderground v.1.15,2013-06-28 01:25:00,
2013-06-27 21:30:00,67.2,65.7,29.66,SSE,150,0.0,0.0,95,0.00,,,0.28,Wunderground v.1.15,2013-06-28 01:30:00,
2013-06-27 21:35:00,67.2,65.7,29.66,SSE,150,0.0,0.0,95,0.00,,,0.28,Wunderground v.1.15,2013-06-28 01:35:00,
2013-06-27 21:40:00,67.2,65.7,29.66,SSE,150,0.0,0.0,95,0.00,,,0.28,Wunderground v.1.15,2013-06-28 01:40:00,
2013-06-27 21:45:00,67.2,65.7,29.66,SSE,150,0.0,0.0,95,0.00,,,0.28,Wunderground v.1.15,2013-06-28 01:45:00,
2013-06-27 21:55:00,67.4,65.9,29.65,SSE,150,0.0,0.0,95,0.00,,,0.28,Wunderground v.1.15,2013-06-28 01:55:00,
2013-06-27 22:00:00,67.5,66.0,29.65,SSE,150,0.0,0.0,95,0.00,,,0.28,Wunderground v.1.15,2013-06-28 02:00:00,
2013-06-27 22:05:00,67.5,66.3,29.65,SSE,150,0.0,0.0,96,0.00,,,0.28,Wunderground v.1.15,2013-06-28 02:05:00,
2013-06-27 22:10:00,67.6,66.4,29.65,SSE,150,0.0,0.0,96,0.00,,,0.28,Wunderground v.1.15,2013-06-28 02:10:00,
2013-06-27 22:15:00,67.7,66.5,29.65,SSE,150,0.0,0.0,96,0.00,,,0.29,Wunderground v.1.15,2013-06-28 02:15:00,
2013-06-27 22:20:00,67.9,66.7,29.64,SSE,150,0.0,0.0,96,0.00,,,0.29,Wunderground v.1.15,2013-06-28 02:20:00,
2013-06-27 22:30:00,68.2,67.0,29.63,SSE,150,0.0,0.0,96,0.00,,,0.29,Wunderground v.1.15,2013-06-28 02:30:00,
2013-06-27 22:35:00,68.3,67.1,29.63,SSE,150,0.0,0.0,96,0.00,,,0.29,Wunderground v.1.15,2013-06-28 02:35:00,
2013-06-27 22:40:00,68.5,67.3,29.63,SSE,150,0.0,0.0,96,0.00,,,0.29,Wunderground v.1.15,2013-06-28 02:40:00,
2013-06-27 22:50:00,68.6,67.4,29.62,SSE,150,0.0,0.0,96,0.00,,,0.29,Wunderground v.1.15,2013-06-28 02:50:00,
2013-06-27 22:55:00,68.7,67.5,29.62,SSE,150,0.0,0.0,96,0.00,,,0.29,Wunderground v.1.15,2013-06-28 02:55:00,
2013-06-27 23:05:00,68.8,67.6,29.61,SE,132,0.0,0.0,96,0.00,,,0.29,Wunderground v.1.15,2013-06-28 03:05:00,
2013-06-27 23:10:00,68.8,67.6,29.61,ESE,112,0.0,0.0,96,0.00,,,0.29,Wunderground v.1.15,2013-06-28 03:10:00,
2013-06-27 23:15:00,68.8,67.6,29.60,ESE,112,0.0,0.0,96,0.00,,,0.29,Wunderground v.1.15,2013-06-28 03:15:00,
2013-06-27 23:25:00,68.8,67.6,29.60,ESE,108,0.0,0.0,96,0.10,,,0.31,Wunderground v.1.15,2013-06-28 03:25:00,
2013-06-27 23:30:00,68.8,67.6,29.59,NE,53,0.0,0.0,96,0.07,,,0.31,Wunderground v.1.15,2013-06-28 03:30:00,
2013-06-27 23:40:00,68.8,67.6,29.58,NE,53,0.0,0.0,96,0.10,,,0.33,Wunderground v.1.15,2013-06-28 03:40:00,
2013-06-27 23:45:00,68.7,67.5,29.58,NE,53,0.0,0.0,96,0.07,,,0.33,Wunderground v.1.15,2013-06-28 03:45:00,
2013-06-27 23:50:00,68.7,67.5,29.57,NE,53,0.0,0.0,96,0.16,,,0.35,Wunderground v.1.15,2013-06-28 03:50:00,
2013-06-27 23:55:00,68.7,67.5,29.57,NE,53,0.0,0.0,96,0.09,,,0.35,Wunderground v.1.15,2013-06-28 03:55:00,